createdAt,value
2018-05-18T00:00:19.540Z,14.72
2018-05-18T00:00:45.672Z,14.77
2018-05-18T00:01:11.816Z,14.68
2018-05-18T00:01:37.981Z,14.77
2018-05-18T00:02:04.138Z,14.82
2018-05-18T00:02:30.279Z,14.77
2018-05-18T00:02:56.419Z,14.66
2018-05-18T00:03:22.581Z,14.65
2018-05-18T00:03:48.747Z,14.66
2018-05-18T00:04:14.885Z,14.7
2018-05-18T00:04:41.024Z,14.73
2018-05-18T00:05:07.166Z,14.7
2018-05-18T00:05:33.303Z,14.6
2018-05-18T00:05:59.460Z,14.66
2018-05-18T00:06:25.595Z,14.62
2018-05-18T00:06:51.733Z,14.65
2018-05-18T00:07:17.891Z,14.62
2018-05-18T00:07:44.061Z,14.62
2018-05-18T00:08:10.191Z,14.63
2018-05-18T00:08:36.335Z,14.63
2018-05-18T00:09:02.479Z,14.65
2018-05-18T00:09:28.609Z,14.58
2018-05-18T00:09:54.776Z,14.48
2018-05-18T00:10:20.951Z,14.48
2018-05-18T00:10:47.095Z,14.53
2018-05-18T00:11:13.238Z,14.53
2018-05-18T00:11:39.373Z,14.53
2018-05-18T00:12:05.511Z,14.5
2018-05-18T00:12:31.676Z,14.5
2018-05-18T00:12:57.841Z,14.53
2018-05-18T00:13:24.000Z,14.53
2018-05-18T00:13:50.193Z,14.62
2018-05-18T00:14:16.327Z,14.63
2018-05-18T00:14:42.469Z,14.63
2018-05-18T00:15:08.607Z,14.63
2018-05-18T00:15:34.752Z,14.65
2018-05-18T00:16:00.912Z,14.65
2018-05-18T00:16:27.041Z,14.66
2018-05-18T00:16:53.205Z,14.63
2018-05-18T00:17:19.345Z,14.69
2018-05-18T00:17:45.479Z,14.62
2018-05-18T00:18:11.651Z,14.63
2018-05-18T00:18:37.806Z,14.68
2018-05-18T00:19:03.941Z,14.6
2018-05-18T00:19:30.109Z,14.62
2018-05-18T00:19:56.276Z,14.6
2018-05-18T00:20:22.409Z,14.66
2018-05-18T00:20:48.551Z,14.68
2018-05-18T00:21:14.712Z,14.6
2018-05-18T00:21:40.869Z,14.69
2018-05-18T00:22:07.036Z,14.6
2018-05-18T00:22:33.171Z,14.6
2018-05-18T00:22:59.316Z,14.63
2018-05-18T00:23:25.470Z,14.59
2018-05-18T00:23:51.634Z,14.6
2018-05-18T00:24:17.780Z,14.54
2018-05-18T00:24:43.919Z,14.45
2018-05-18T00:25:10.051Z,14.53
2018-05-18T00:25:36.219Z,14.54
2018-05-18T00:26:02.354Z,14.5
2018-05-18T00:26:28.491Z,14.51
2018-05-18T00:26:54.653Z,14.53
2018-05-18T00:27:20.788Z,14.55
2018-05-18T00:27:46.930Z,14.47
2018-05-18T00:28:13.063Z,14.55
2018-05-18T00:28:39.229Z,14.44
2018-05-18T00:29:05.365Z,14.5
2018-05-18T00:29:31.501Z,14.5
2018-05-18T00:29:57.636Z,14.48
2018-05-18T00:30:23.780Z,14.48
2018-05-18T00:30:49.934Z,14.47
2018-05-18T00:31:16.081Z,14.53
2018-05-18T00:31:42.958Z,14.51
2018-05-18T00:32:09.120Z,14.5
2018-05-18T00:32:35.260Z,14.51
2018-05-18T00:33:01.398Z,14.5
2018-05-18T00:33:27.532Z,14.53
2018-05-18T00:33:53.668Z,14.6
2018-05-18T00:34:19.815Z,14.48
2018-05-18T00:34:45.953Z,14.53
2018-05-18T00:35:12.111Z,14.45
2018-05-18T00:35:38.255Z,14.35
2018-05-18T00:36:04.388Z,14.48
2018-05-18T00:36:30.551Z,14.44
2018-05-18T00:36:56.695Z,14.45
2018-05-18T00:37:22.836Z,14.47
2018-05-18T00:37:48.971Z,14.45
2018-05-18T00:38:15.104Z,14.41
2018-05-18T00:38:41.246Z,14.45
2018-05-18T00:39:07.391Z,14.44
2018-05-18T00:39:33.524Z,14.44
2018-05-18T00:39:59.716Z,14.41
2018-05-18T00:40:25.842Z,14.47
2018-05-18T00:40:52.014Z,14.37
2018-05-18T00:41:18.177Z,14.36
2018-05-18T00:41:44.310Z,14.37
2018-05-18T00:42:10.455Z,14.3
2018-05-18T00:42:36.594Z,14.37
2018-05-18T00:43:02.754Z,14.32
2018-05-18T00:43:28.891Z,14.3
2018-05-18T00:43:55.034Z,14.36
2018-05-18T00:44:21.168Z,14.33
2018-05-18T00:44:47.309Z,14.29
2018-05-18T00:45:13.454Z,14.37
2018-05-18T00:45:39.614Z,14.36
2018-05-18T00:46:05.749Z,14.32
2018-05-18T00:46:31.894Z,14.23
2018-05-18T00:46:58.032Z,14.22
2018-05-18T00:47:24.191Z,14.2
2018-05-18T00:47:50.369Z,14.23
2018-05-18T00:48:16.561Z,14.15
2018-05-18T00:48:42.690Z,14.18
2018-05-18T00:49:08.829Z,14.15
2018-05-18T00:49:35.048Z,14.17
2018-05-18T00:50:01.213Z,14.22
2018-05-18T00:50:27.382Z,14.17
2018-05-18T00:50:53.525Z,14.2
2018-05-18T00:51:19.665Z,14.2
2018-05-18T00:51:45.796Z,14.15
2018-05-18T00:52:11.940Z,14.25
2018-05-18T00:52:38.081Z,14.17
2018-05-18T00:53:04.219Z,14.1
2018-05-18T00:53:30.350Z,14.12
2018-05-18T00:53:56.492Z,14.14
2018-05-18T00:54:22.628Z,14.1
2018-05-18T00:54:48.782Z,14.12
2018-05-18T00:55:14.935Z,14.17
2018-05-18T00:55:41.077Z,14.22
2018-05-18T00:56:07.240Z,14.14
2018-05-18T00:56:33.379Z,14.26
2018-05-18T00:56:59.514Z,14.25
2018-05-18T00:57:25.677Z,14.23
2018-05-18T00:57:51.845Z,14.28
2018-05-18T00:58:17.980Z,14.18
2018-05-18T00:58:44.148Z,14.23
2018-05-18T00:59:10.287Z,14.23
2018-05-18T00:59:36.470Z,14.22
2018-05-18T01:00:02.612Z,14.23
2018-05-18T01:00:28.742Z,14.25
2018-05-18T01:00:54.887Z,14.26
2018-05-18T01:01:21.018Z,14.25
2018-05-18T01:01:47.159Z,14.2
2018-05-18T01:02:13.293Z,14.26
2018-05-18T01:02:39.431Z,14.2
2018-05-18T01:03:05.596Z,14.25
2018-05-18T01:03:31.731Z,14.25
2018-05-18T01:03:57.873Z,14.22
2018-05-18T01:04:24.078Z,14.07
2018-05-18T01:04:50.154Z,14.12
2018-05-18T01:05:16.288Z,14.1
2018-05-18T01:05:42.416Z,14.18
2018-05-18T01:06:08.555Z,14.17
2018-05-18T01:06:34.692Z,14.15
2018-05-18T01:07:00.828Z,14.12
2018-05-18T01:07:26.965Z,14.12
2018-05-18T01:07:53.107Z,14.1
2018-05-18T01:08:19.248Z,14
2018-05-18T01:08:45.384Z,14.1
2018-05-18T01:09:11.546Z,14.17
2018-05-18T01:09:37.681Z,14.12
2018-05-18T01:10:03.826Z,14.12
2018-05-18T01:10:29.985Z,13.97
2018-05-18T01:10:56.124Z,14.05
2018-05-18T01:11:22.276Z,13.97
2018-05-18T01:11:48.415Z,13.97
2018-05-18T01:12:14.571Z,14.03
2018-05-18T01:12:40.711Z,14.05
2018-05-18T01:13:06.850Z,14.11
2018-05-18T01:13:32.988Z,13.99
2018-05-18T01:13:59.152Z,13.96
2018-05-18T01:14:25.313Z,14
2018-05-18T01:14:51.476Z,14.03
2018-05-18T01:15:17.682Z,13.99
2018-05-18T01:15:43.952Z,14.1
2018-05-18T01:16:10.057Z,13.99
2018-05-18T01:16:36.201Z,14.03
2018-05-18T01:17:02.337Z,14
2018-05-18T01:17:28.476Z,14
2018-05-18T01:17:54.615Z,14.08
2018-05-18T01:18:20.783Z,13.96
2018-05-18T01:18:46.914Z,14
2018-05-18T01:19:13.061Z,13.97
2018-05-18T01:19:39.192Z,14.04
2018-05-18T01:20:05.339Z,14.05
2018-05-18T01:20:31.472Z,13.97
2018-05-18T01:20:57.675Z,14.11
2018-05-18T01:21:23.748Z,14.08
2018-05-18T01:21:49.894Z,14.15
2018-05-18T01:22:16.031Z,14.17
2018-05-18T01:22:42.174Z,14.1
2018-05-18T01:23:08.306Z,14.07
2018-05-18T01:23:34.471Z,14.2
2018-05-18T01:24:00.612Z,14.12
2018-05-18T01:24:26.757Z,14.15
2018-05-18T01:24:52.889Z,14.07
2018-05-18T01:25:19.030Z,14.11
2018-05-18T01:25:45.189Z,14.11
2018-05-18T01:26:11.332Z,14.11
2018-05-18T01:26:37.482Z,14.11
2018-05-18T01:27:03.652Z,14.18
2018-05-18T01:27:29.787Z,14.22
2018-05-18T01:27:55.932Z,14.2
2018-05-18T01:28:22.073Z,14.11
2018-05-18T01:28:48.227Z,14.1
2018-05-18T01:29:14.370Z,14.1
2018-05-18T01:29:40.544Z,14.04
2018-05-18T01:30:06.682Z,14.05
2018-05-18T01:30:32.816Z,14
2018-05-18T01:30:58.953Z,14
2018-05-18T01:31:25.088Z,14.03
2018-05-18T01:31:51.225Z,14.08
2018-05-18T01:32:17.355Z,14.1
2018-05-18T01:32:43.501Z,14.07
2018-05-18T01:33:09.639Z,14.08
2018-05-18T01:33:35.777Z,14.17
2018-05-18T01:34:01.910Z,14.11
2018-05-18T01:34:28.050Z,14.17
2018-05-18T01:34:54.217Z,14.11
2018-05-18T01:35:20.351Z,14.08
2018-05-18T01:35:46.522Z,14.15
2018-05-18T01:36:12.660Z,14.15
2018-05-18T01:36:38.795Z,14.18
2018-05-18T01:37:04.930Z,14.11
2018-05-18T01:37:31.073Z,14.12
2018-05-18T01:37:57.205Z,13.97
2018-05-18T01:38:23.349Z,13.97
2018-05-18T01:38:49.484Z,13.96
2018-05-18T01:39:15.657Z,13.99
2018-05-18T01:39:41.786Z,13.97
2018-05-18T01:40:07.926Z,13.97
2018-05-18T01:40:34.095Z,13.92
2018-05-18T01:41:00.266Z,13.9
2018-05-18T01:41:26.419Z,13.81
2018-05-18T01:41:52.560Z,13.79
2018-05-18T01:42:18.695Z,13.89
2018-05-18T01:42:44.840Z,13.78
2018-05-18T01:43:10.981Z,13.83
2018-05-18T01:43:37.158Z,13.83
2018-05-18T01:44:03.299Z,13.89
2018-05-18T01:44:29.461Z,13.85
2018-05-18T01:44:55.646Z,13.79
2018-05-18T01:45:21.786Z,13.71
2018-05-18T01:45:47.925Z,13.77
2018-05-18T01:46:14.083Z,13.7
2018-05-18T01:46:40.224Z,13.71
2018-05-18T01:47:06.391Z,13.74
2018-05-18T01:47:32.549Z,13.65
2018-05-18T01:47:58.689Z,13.6
2018-05-18T01:48:24.845Z,13.72
2018-05-18T01:48:50.986Z,13.71
2018-05-18T01:49:17.148Z,13.71
2018-05-18T01:49:43.281Z,13.72
2018-05-18T01:50:09.416Z,13.71
2018-05-18T01:50:35.581Z,13.74
2018-05-18T01:51:01.739Z,13.77
2018-05-18T01:51:27.874Z,13.74
2018-05-18T01:51:54.057Z,13.77
2018-05-18T01:52:20.216Z,13.77
2018-05-18T01:52:46.357Z,13.74
2018-05-18T01:53:12.492Z,13.75
2018-05-18T01:53:38.635Z,13.81
2018-05-18T01:54:04.768Z,13.79
2018-05-18T01:54:30.908Z,13.74
2018-05-18T01:54:57.049Z,13.78
2018-05-18T01:55:23.187Z,13.75
2018-05-18T01:55:49.316Z,13.77
2018-05-18T01:56:15.486Z,13.7
2018-05-18T01:56:41.624Z,13.63
2018-05-18T01:57:07.781Z,13.7
2018-05-18T01:57:33.939Z,13.62
2018-05-18T01:58:00.085Z,13.71
2018-05-18T01:58:26.226Z,13.65
2018-05-18T01:58:52.381Z,13.72
2018-05-18T01:59:18.528Z,13.67
2018-05-18T01:59:44.659Z,13.71
2018-05-18T02:00:10.796Z,13.68
2018-05-18T02:00:36.932Z,13.7
2018-05-18T02:01:03.078Z,13.71
2018-05-18T02:01:29.213Z,13.7
2018-05-18T02:01:55.351Z,13.72
2018-05-18T02:02:21.487Z,13.72
2018-05-18T02:02:47.630Z,13.62
2018-05-18T02:03:13.792Z,13.62
2018-05-18T02:03:39.933Z,13.7
2018-05-18T02:04:06.094Z,13.68
2018-05-18T02:04:32.253Z,13.71
2018-05-18T02:04:58.417Z,13.72
2018-05-18T02:05:24.562Z,13.75
2018-05-18T02:05:50.722Z,13.77
2018-05-18T02:06:16.865Z,13.74
2018-05-18T02:06:43.000Z,13.77
2018-05-18T02:07:09.135Z,13.75
2018-05-18T02:07:35.276Z,13.75
2018-05-18T02:08:01.416Z,13.74
2018-05-18T02:08:27.556Z,13.74
2018-05-18T02:08:53.724Z,13.77
2018-05-18T02:09:19.889Z,13.71
2018-05-18T02:09:46.041Z,13.74
2018-05-18T02:10:12.188Z,13.74
2018-05-18T02:10:38.327Z,13.86
2018-05-18T02:11:04.497Z,13.83
2018-05-18T02:11:30.660Z,13.86
2018-05-18T02:11:56.827Z,13.86
2018-05-18T02:12:22.965Z,13.87
2018-05-18T02:12:49.103Z,13.87
2018-05-18T02:13:15.240Z,13.99
2018-05-18T02:13:41.379Z,13.86
2018-05-18T02:14:07.561Z,13.92
2018-05-18T02:14:33.705Z,13.86
2018-05-18T02:14:59.840Z,13.96
2018-05-18T02:15:25.977Z,14.03
2018-05-18T02:15:52.121Z,13.99
2018-05-18T02:16:18.284Z,13.89
2018-05-18T02:16:44.427Z,13.89
2018-05-18T02:17:10.562Z,13.92
2018-05-18T02:17:36.697Z,13.83
2018-05-18T02:18:02.838Z,13.87
2018-05-18T02:18:28.993Z,13.83
2018-05-18T02:18:55.158Z,13.86
2018-05-18T02:19:21.300Z,13.9
2018-05-18T02:19:47.458Z,13.96
2018-05-18T02:20:13.600Z,13.89
2018-05-18T02:20:39.734Z,13.86
2018-05-18T02:21:05.871Z,14
2018-05-18T02:21:32.063Z,13.92
2018-05-18T02:21:58.198Z,13.92
2018-05-18T02:22:24.328Z,13.87
2018-05-18T02:22:50.474Z,14
2018-05-18T02:23:16.603Z,13.96
2018-05-18T02:23:42.763Z,13.83
2018-05-18T02:24:08.928Z,13.81
2018-05-18T02:24:35.065Z,13.87
2018-05-18T02:25:01.221Z,13.85
2018-05-18T02:25:27.385Z,13.9
2018-05-18T02:25:53.519Z,13.87
2018-05-18T02:26:19.665Z,13.81
2018-05-18T02:26:45.826Z,13.89
2018-05-18T02:27:11.965Z,13.83
2018-05-18T02:27:38.131Z,13.87
2018-05-18T02:28:04.264Z,13.75
2018-05-18T02:28:30.398Z,13.83
2018-05-18T02:28:56.533Z,13.75
2018-05-18T02:29:22.675Z,13.86
2018-05-18T02:29:48.816Z,13.78
2018-05-18T02:30:14.950Z,13.74
2018-05-18T02:30:41.093Z,13.74
2018-05-18T02:31:07.249Z,13.72
2018-05-18T02:31:33.386Z,13.72
2018-05-18T02:31:59.526Z,13.83
2018-05-18T02:32:25.692Z,13.79
2018-05-18T02:32:51.842Z,13.74
2018-05-18T02:33:17.997Z,13.75
2018-05-18T02:33:44.200Z,13.75
2018-05-18T02:34:10.342Z,13.78
2018-05-18T02:34:36.502Z,13.77
2018-05-18T02:35:02.660Z,13.77
2018-05-18T02:35:28.827Z,13.75
2018-05-18T02:35:54.979Z,13.74
2018-05-18T02:36:21.147Z,13.78
2018-05-18T02:36:47.313Z,13.74
2018-05-18T02:37:13.449Z,13.75
2018-05-18T02:37:39.605Z,13.71
2018-05-18T02:38:05.795Z,13.77
2018-05-18T02:38:31.986Z,13.74
2018-05-18T02:38:58.123Z,13.81
2018-05-18T02:39:24.319Z,13.83
2018-05-18T02:39:50.451Z,13.78
2018-05-18T02:40:16.648Z,13.75
2018-05-18T02:40:42.791Z,13.87
2018-05-18T02:41:08.987Z,13.86
2018-05-18T02:41:35.117Z,13.83
2018-05-18T02:42:01.283Z,13.86
2018-05-18T02:42:27.453Z,13.81
2018-05-18T02:42:53.615Z,13.87
2018-05-18T02:43:19.794Z,13.83
2018-05-18T02:43:45.941Z,13.86
2018-05-18T02:44:12.123Z,13.89
2018-05-18T02:44:38.285Z,13.83
2018-05-18T02:45:04.474Z,13.87
2018-05-18T02:45:30.608Z,13.87
2018-05-18T02:45:56.817Z,13.85
2018-05-18T02:46:23.003Z,13.83
2018-05-18T02:46:49.182Z,13.83
2018-05-18T02:47:15.355Z,13.81
2018-05-18T02:47:41.507Z,13.93
2018-05-18T02:48:07.761Z,13.83
2018-05-18T02:48:33.896Z,13.96
2018-05-18T02:49:00.062Z,13.92
2018-05-18T02:49:26.195Z,13.9
2018-05-18T02:49:52.334Z,13.89
2018-05-18T02:50:18.502Z,13.86
2018-05-18T02:50:44.670Z,13.95
2018-05-18T02:51:10.799Z,13.97
2018-05-18T02:51:36.957Z,13.89
2018-05-18T02:52:03.124Z,13.99
2018-05-18T02:52:29.377Z,13.93
2018-05-18T02:52:55.419Z,13.96
2018-05-18T02:53:21.578Z,13.97
2018-05-18T02:53:47.719Z,13.99
2018-05-18T02:54:13.878Z,13.95
2018-05-18T02:54:40.060Z,14.03
2018-05-18T02:55:06.212Z,13.97
2018-05-18T02:55:32.360Z,13.96
2018-05-18T02:55:58.499Z,13.97
2018-05-18T02:56:24.633Z,13.95
2018-05-18T02:56:50.766Z,13.87
2018-05-18T02:57:16.902Z,13.75
2018-05-18T02:57:43.093Z,13.79
2018-05-18T02:58:09.254Z,13.75
2018-05-18T02:58:35.450Z,13.77
2018-05-18T02:59:01.611Z,13.72
2018-05-18T02:59:27.793Z,13.75
2018-05-18T02:59:53.946Z,13.7
2018-05-18T03:00:20.086Z,13.77
2018-05-18T03:00:46.248Z,13.74
2018-05-18T03:01:12.415Z,13.79
2018-05-18T03:01:38.573Z,13.79
2018-05-18T03:02:04.712Z,13.78
2018-05-18T03:02:30.963Z,13.74
2018-05-18T03:02:57.381Z,13.85
2018-05-18T03:03:23.660Z,13.78
2018-05-18T03:03:49.975Z,13.79
2018-05-18T03:04:16.312Z,13.86
2018-05-18T03:04:42.551Z,13.77
2018-05-18T03:05:08.825Z,13.75
2018-05-18T03:05:35.230Z,13.78
2018-05-18T03:06:01.630Z,13.78
2018-05-18T03:06:27.863Z,13.75
2018-05-18T03:06:54.149Z,13.74
2018-05-18T03:07:20.340Z,13.72
2018-05-18T03:07:46.602Z,13.77
2018-05-18T03:08:13.024Z,13.87
2018-05-18T03:08:39.437Z,13.83
2018-05-18T03:09:05.735Z,13.79
2018-05-18T03:09:31.935Z,13.86
2018-05-18T03:09:58.072Z,13.77
2018-05-18T03:10:24.214Z,13.78
2018-05-18T03:10:50.350Z,13.81
2018-05-18T03:11:16.494Z,13.86
2018-05-18T03:11:42.661Z,13.83
2018-05-18T03:12:08.801Z,13.85
2018-05-18T03:12:34.960Z,13.86
2018-05-18T03:13:01.108Z,13.81
2018-05-18T03:13:27.294Z,13.89
2018-05-18T03:13:53.452Z,13.86
2018-05-18T03:14:19.667Z,13.83
2018-05-18T03:14:45.828Z,13.83
2018-05-18T03:15:11.996Z,13.83
2018-05-18T03:15:38.132Z,13.72
2018-05-18T03:16:04.269Z,13.75
2018-05-18T03:16:30.407Z,13.77
2018-05-18T03:16:56.550Z,13.77
2018-05-18T03:17:22.712Z,13.75
2018-05-18T03:17:48.879Z,13.78
2018-05-18T03:18:15.048Z,13.83
2018-05-18T03:18:41.207Z,13.78
2018-05-18T03:19:07.348Z,13.78
2018-05-18T03:19:33.484Z,13.74
2018-05-18T03:19:59.619Z,13.75
2018-05-18T03:20:25.758Z,13.72
2018-05-18T03:20:51.921Z,13.79
2018-05-18T03:21:18.056Z,13.77
2018-05-18T03:21:44.195Z,13.72
2018-05-18T03:22:10.340Z,13.77
2018-05-18T03:22:36.513Z,13.7
2018-05-18T03:23:02.659Z,13.71
2018-05-18T03:23:28.807Z,13.75
2018-05-18T03:23:54.942Z,13.7
2018-05-18T03:24:21.075Z,13.77
2018-05-18T03:24:47.211Z,13.71
2018-05-18T03:25:13.355Z,13.71
2018-05-18T03:25:39.523Z,13.63
2018-05-18T03:26:05.661Z,13.63
2018-05-18T03:26:31.818Z,13.68
2018-05-18T03:26:57.961Z,13.67
2018-05-18T03:27:24.095Z,13.68
2018-05-18T03:27:50.238Z,13.7
2018-05-18T03:28:16.378Z,13.75
2018-05-18T03:28:42.510Z,13.74
2018-05-18T03:29:08.678Z,13.79
2018-05-18T03:29:34.838Z,13.74
2018-05-18T03:30:00.975Z,13.71
2018-05-18T03:30:27.167Z,13.74
2018-05-18T03:30:53.338Z,13.7
2018-05-18T03:31:19.478Z,13.67
2018-05-18T03:31:45.662Z,13.71
2018-05-18T03:32:11.803Z,13.62
2018-05-18T03:32:37.944Z,13.67
2018-05-18T03:33:04.081Z,13.65
2018-05-18T03:33:30.217Z,13.68
2018-05-18T03:33:56.357Z,13.65
2018-05-18T03:34:22.550Z,13.6
2018-05-18T03:34:48.684Z,13.6
2018-05-18T03:35:14.830Z,13.65
2018-05-18T03:35:40.992Z,13.62
2018-05-18T03:36:07.181Z,13.62
2018-05-18T03:36:33.334Z,13.71
2018-05-18T03:36:59.468Z,13.65
2018-05-18T03:37:25.634Z,13.63
2018-05-18T03:37:51.770Z,13.62
2018-05-18T03:38:17.912Z,13.62
2018-05-18T03:38:44.042Z,13.72
2018-05-18T03:39:10.189Z,13.7
2018-05-18T03:39:36.323Z,13.71
2018-05-18T03:40:02.463Z,13.72
2018-05-18T03:40:28.596Z,13.71
2018-05-18T03:40:54.737Z,13.62
2018-05-18T03:41:20.877Z,13.6
2018-05-18T03:41:47.012Z,13.62
2018-05-18T03:42:13.147Z,13.71
2018-05-18T03:42:39.289Z,13.63
2018-05-18T03:43:05.433Z,13.72
2018-05-18T03:43:31.590Z,13.72
2018-05-18T03:43:57.732Z,13.74
2018-05-18T03:44:23.869Z,13.7
2018-05-18T03:44:50.007Z,13.63
2018-05-18T03:45:16.150Z,13.71
2018-05-18T03:45:42.283Z,13.74
2018-05-18T03:46:08.422Z,13.68
2018-05-18T03:46:34.585Z,13.77
2018-05-18T03:47:00.717Z,13.68
2018-05-18T03:47:26.862Z,13.65
2018-05-18T03:47:53.028Z,13.65
2018-05-18T03:48:19.171Z,13.74
2018-05-18T03:48:45.308Z,13.63
2018-05-18T03:49:11.451Z,13.62
2018-05-18T03:49:37.587Z,13.72
2018-05-18T03:50:03.726Z,13.6
2018-05-18T03:50:29.865Z,13.7
2018-05-18T03:50:56.041Z,13.62
2018-05-18T03:51:22.185Z,13.65
2018-05-18T03:51:48.325Z,13.62
2018-05-18T03:52:14.458Z,13.62
2018-05-18T03:52:40.592Z,13.63
2018-05-18T03:53:06.737Z,13.6
2018-05-18T03:53:32.901Z,13.56
2018-05-18T03:53:59.061Z,13.65
2018-05-18T03:54:25.195Z,13.59
2018-05-18T03:54:51.340Z,13.62
2018-05-18T03:55:17.480Z,13.65
2018-05-18T03:55:43.613Z,13.6
2018-05-18T03:56:09.751Z,13.56
2018-05-18T03:56:35.897Z,13.63
2018-05-18T03:57:02.035Z,13.6
2018-05-18T03:57:28.172Z,13.6
2018-05-18T03:57:54.306Z,13.62
2018-05-18T03:58:20.449Z,13.63
2018-05-18T03:58:46.591Z,13.6
2018-05-18T03:59:12.722Z,13.52
2018-05-18T03:59:38.863Z,13.56
2018-05-18T04:00:05.003Z,13.54
2018-05-18T04:00:31.142Z,13.67
2018-05-18T04:00:57.278Z,13.56
2018-05-18T04:01:23.454Z,13.59
2018-05-18T04:01:49.621Z,13.54
2018-05-18T04:02:15.750Z,13.53
2018-05-18T04:02:41.919Z,13.53
2018-05-18T04:03:08.053Z,13.57
2018-05-18T04:03:34.194Z,13.59
2018-05-18T04:04:00.348Z,13.54
2018-05-18T04:04:26.492Z,13.54
2018-05-18T04:04:52.624Z,13.54
2018-05-18T04:05:18.795Z,13.59
2018-05-18T04:05:44.932Z,13.57
2018-05-18T04:06:11.066Z,13.5
2018-05-18T04:06:37.208Z,13.57
2018-05-18T04:07:03.368Z,13.57
2018-05-18T04:07:29.526Z,13.56
2018-05-18T04:07:55.833Z,13.56
2018-05-18T04:08:21.804Z,13.6
2018-05-18T04:08:47.976Z,13.67
2018-05-18T04:09:14.116Z,13.63
2018-05-18T04:09:40.250Z,13.6
2018-05-18T04:10:06.415Z,13.65
2018-05-18T04:10:32.574Z,13.65
2018-05-18T04:10:58.742Z,13.7
2018-05-18T04:11:24.877Z,13.68
2018-05-18T04:11:51.046Z,13.67
2018-05-18T04:12:17.199Z,13.57
2018-05-18T04:12:43.344Z,13.72
2018-05-18T04:13:09.474Z,13.7
2018-05-18T04:13:35.624Z,13.71
2018-05-18T04:14:01.832Z,13.62
2018-05-18T04:14:27.985Z,13.74
2018-05-18T04:14:54.123Z,13.72
2018-05-18T04:15:20.292Z,13.59
2018-05-18T04:15:46.446Z,13.6
2018-05-18T04:16:12.609Z,13.59
2018-05-18T04:16:38.757Z,13.6
2018-05-18T04:17:04.893Z,13.71
2018-05-18T04:17:31.077Z,13.67
2018-05-18T04:17:57.215Z,13.72
2018-05-18T04:18:23.349Z,13.68
2018-05-18T04:18:49.517Z,13.68
2018-05-18T04:19:15.663Z,13.7
2018-05-18T04:19:41.821Z,13.75
2018-05-18T04:20:07.990Z,13.85
2018-05-18T04:20:34.131Z,13.77
2018-05-18T04:21:00.266Z,13.75
2018-05-18T04:21:26.407Z,13.72
2018-05-18T04:21:52.547Z,13.72
2018-05-18T04:22:18.679Z,13.57
2018-05-18T04:22:44.822Z,13.56
2018-05-18T04:23:10.983Z,13.63
2018-05-18T04:23:37.118Z,13.6
2018-05-18T04:24:03.260Z,13.57
2018-05-18T04:24:29.401Z,13.65
2018-05-18T04:24:55.561Z,13.7
2018-05-18T04:25:21.678Z,13.7
2018-05-18T04:25:47.918Z,13.62
2018-05-18T04:26:13.974Z,13.68
2018-05-18T04:26:40.107Z,13.72
2018-05-18T04:27:06.256Z,13.78
2018-05-18T04:27:32.384Z,13.75
2018-05-18T04:27:58.527Z,13.74
2018-05-18T04:28:24.659Z,13.72
2018-05-18T04:28:50.821Z,13.72
2018-05-18T04:29:16.963Z,13.68
2018-05-18T04:29:43.122Z,13.71
2018-05-18T04:30:09.357Z,13.63
2018-05-18T04:30:35.403Z,13.68
2018-05-18T04:31:01.553Z,13.7
2018-05-18T04:31:27.684Z,13.7
2018-05-18T04:31:53.847Z,13.72
2018-05-18T04:32:20.006Z,13.72
2018-05-18T04:32:46.140Z,13.63
2018-05-18T04:33:12.282Z,13.68
2018-05-18T04:33:38.440Z,13.72
2018-05-18T04:34:04.584Z,13.62
2018-05-18T04:34:30.780Z,13.71
2018-05-18T04:34:56.913Z,13.68
2018-05-18T04:35:23.058Z,13.72
2018-05-18T04:35:49.191Z,13.63
2018-05-18T04:36:15.334Z,13.72
2018-05-18T04:36:41.467Z,13.71
2018-05-18T04:37:07.640Z,13.72
2018-05-18T04:37:33.794Z,13.65
2018-05-18T04:37:59.939Z,13.74
2018-05-18T04:38:26.074Z,13.63
2018-05-18T04:38:52.239Z,13.74
2018-05-18T04:39:18.380Z,13.75
2018-05-18T04:39:44.512Z,13.75
2018-05-18T04:40:10.649Z,13.72
2018-05-18T04:40:36.812Z,13.71
2018-05-18T04:41:02.948Z,13.67
2018-05-18T04:41:29.094Z,13.72
2018-05-18T04:41:55.231Z,13.79
2018-05-18T04:42:21.389Z,13.77
2018-05-18T04:42:47.532Z,13.72
2018-05-18T04:43:13.755Z,13.77
2018-05-18T04:43:39.883Z,13.75
2018-05-18T04:44:06.025Z,13.74
2018-05-18T04:44:32.170Z,13.79
2018-05-18T04:44:58.306Z,13.78
2018-05-18T04:45:24.446Z,13.83
2018-05-18T04:45:50.584Z,13.77
2018-05-18T04:46:16.722Z,13.77
2018-05-18T04:46:42.854Z,13.72
2018-05-18T04:47:08.999Z,13.74
2018-05-18T04:47:35.165Z,13.71
2018-05-18T04:48:01.301Z,13.71
2018-05-18T04:48:27.454Z,13.63
2018-05-18T04:48:53.594Z,13.65
2018-05-18T04:49:19.753Z,13.62
2018-05-18T04:49:45.889Z,13.6
2018-05-18T04:50:12.032Z,13.68
2018-05-18T04:50:38.170Z,13.7
2018-05-18T04:51:04.412Z,13.7
2018-05-18T04:51:30.501Z,13.71
2018-05-18T04:51:56.637Z,13.72
2018-05-18T04:52:22.781Z,13.72
2018-05-18T04:52:48.914Z,13.74
2018-05-18T04:53:15.060Z,13.74
2018-05-18T04:53:41.196Z,13.59
2018-05-18T04:54:07.336Z,13.67
2018-05-18T04:54:33.468Z,13.67
2018-05-18T04:54:59.635Z,13.67
2018-05-18T04:55:25.793Z,13.71
2018-05-18T04:55:51.935Z,13.68
2018-05-18T04:56:18.068Z,13.68
2018-05-18T04:56:44.210Z,13.71
2018-05-18T04:57:10.353Z,13.59
2018-05-18T04:57:36.493Z,13.62
2018-05-18T04:58:02.634Z,13.7
2018-05-18T04:58:28.771Z,13.7
2018-05-18T04:58:54.923Z,13.59
2018-05-18T04:59:21.041Z,13.62
2018-05-18T04:59:47.178Z,13.57
2018-05-18T05:00:13.320Z,13.62
2018-05-18T05:00:39.462Z,13.62
2018-05-18T05:01:05.626Z,13.57
2018-05-18T05:01:31.762Z,13.62
2018-05-18T05:01:57.897Z,13.6
2018-05-18T05:02:24.061Z,13.65
2018-05-18T05:02:50.206Z,13.65
2018-05-18T05:03:16.346Z,13.62
2018-05-18T05:03:42.480Z,13.63
2018-05-18T05:04:08.621Z,13.53
2018-05-18T05:04:34.789Z,13.49
2018-05-18T05:05:00.927Z,13.46
2018-05-18T05:05:27.124Z,13.57
2018-05-18T05:05:53.254Z,13.5
2018-05-18T05:06:19.392Z,13.54
2018-05-18T05:06:45.561Z,13.53
2018-05-18T05:07:11.724Z,13.52
2018-05-18T05:07:37.859Z,13.5
2018-05-18T05:08:04.004Z,13.6
2018-05-18T05:08:30.161Z,13.53
2018-05-18T05:08:56.301Z,13.53
2018-05-18T05:09:22.436Z,13.53
2018-05-18T05:09:48.608Z,13.5
2018-05-18T05:10:14.765Z,13.49
2018-05-18T05:10:40.910Z,13.5
2018-05-18T05:11:07.044Z,13.49
2018-05-18T05:11:33.187Z,13.52
2018-05-18T05:11:59.321Z,13.49
2018-05-18T05:12:25.467Z,13.44
2018-05-18T05:12:51.616Z,13.47
2018-05-18T05:13:17.784Z,13.42
2018-05-18T05:13:43.919Z,13.47
2018-05-18T05:14:10.059Z,13.49
2018-05-18T05:14:36.194Z,13.57
2018-05-18T05:15:02.336Z,13.44
2018-05-18T05:15:28.500Z,13.47
2018-05-18T05:15:54.632Z,13.54
2018-05-18T05:16:20.772Z,13.54
2018-05-18T05:16:46.916Z,13.49
2018-05-18T05:17:13.053Z,13.49
2018-05-18T05:17:39.219Z,13.52
2018-05-18T05:18:05.357Z,13.56
2018-05-18T05:18:31.498Z,13.6
2018-05-18T05:18:57.660Z,13.56
2018-05-18T05:19:23.777Z,13.56
2018-05-18T05:19:49.908Z,13.56
2018-05-18T05:20:16.044Z,13.63
2018-05-18T05:20:42.186Z,13.71
2018-05-18T05:21:08.319Z,13.68
2018-05-18T05:21:34.460Z,13.65
2018-05-18T05:22:00.599Z,13.65
2018-05-18T05:22:26.737Z,13.7
2018-05-18T05:22:52.885Z,13.62
2018-05-18T05:23:19.076Z,13.6
2018-05-18T05:23:45.281Z,13.77
2018-05-18T05:24:11.338Z,13.72
2018-05-18T05:24:37.484Z,13.83
2018-05-18T05:25:03.647Z,13.79
2018-05-18T05:25:29.790Z,13.78
2018-05-18T05:25:55.936Z,13.78
2018-05-18T05:26:22.072Z,13.85
2018-05-18T05:26:48.231Z,13.87
2018-05-18T05:27:14.389Z,13.87
2018-05-18T05:27:40.540Z,13.81
2018-05-18T05:28:06.686Z,13.87
2018-05-18T05:28:32.831Z,13.85
2018-05-18T05:28:58.964Z,13.93
2018-05-18T05:29:25.128Z,13.83
2018-05-18T05:29:51.262Z,13.89
2018-05-18T05:30:17.399Z,13.81
2018-05-18T05:30:43.595Z,13.83
2018-05-18T05:31:09.730Z,13.85
2018-05-18T05:31:35.866Z,13.86
2018-05-18T05:32:02.000Z,13.97
2018-05-18T05:32:28.139Z,13.97
2018-05-18T05:32:54.281Z,13.99
2018-05-18T05:33:20.420Z,14.11
2018-05-18T05:33:46.609Z,13.99
2018-05-18T05:34:12.746Z,14
2018-05-18T05:34:38.914Z,14.14
2018-05-18T05:35:05.042Z,14.11
2018-05-18T05:35:31.198Z,14.03
2018-05-18T05:35:57.363Z,14.14
2018-05-18T05:36:23.551Z,13.99
2018-05-18T05:36:49.729Z,13.97
2018-05-18T05:37:15.867Z,13.97
2018-05-18T05:37:42.002Z,13.96
2018-05-18T05:38:08.143Z,13.96
2018-05-18T05:38:34.280Z,13.97